createdAt,value
2023-03-05T00:00:08.662Z,8.28
2023-03-05T00:07:14.951Z,8.12
2023-03-05T00:14:16.643Z,7.88
2023-03-05T00:21:38.315Z,8.00
2023-03-05T00:28:39.887Z,7.97
2023-03-05T00:35:45.628Z,7.89
2023-03-05T00:42:47.272Z,7.80
2023-03-05T00:49:48.888Z,7.44
2023-03-05T00:56:50.689Z,7.54
2023-03-05T01:03:52.316Z,7.50
2023-03-05T01:10:53.944Z,7.46
2023-03-05T01:17:55.579Z,7.52
2023-03-05T01:24:57.157Z,7.29
2023-03-05T01:31:58.748Z,7.26
2023-03-05T01:39:00.519Z,7.16
2023-03-05T01:46:23.772Z,7.22
2023-03-05T01:53:25.334Z,7.09
2023-03-05T02:00:31.949Z,6.98
2023-03-05T02:07:33.622Z,7.25
2023-03-05T02:14:35.174Z,6.88
2023-03-05T02:21:44.563Z,6.86
2023-03-05T02:28:48.957Z,6.85
2023-03-05T02:35:50.524Z,6.88
2023-03-05T02:42:52.074Z,6.94
2023-03-05T02:49:54.358Z,6.93
2023-03-05T02:56:55.969Z,6.94
2023-03-05T03:03:57.754Z,6.80
2023-03-05T03:11:09.800Z,6.94
2023-03-05T03:18:11.397Z,6.73
2023-03-05T03:25:17.379Z,6.71
2023-03-05T03:32:19.029Z,6.49
2023-03-05T03:39:20.710Z,6.71
2023-03-05T03:46:22.268Z,6.51
2023-03-05T03:53:23.919Z,6.58
2023-03-05T04:00:25.454Z,6.73
2023-03-05T04:07:27.044Z,6.43
2023-03-05T04:14:28.585Z,6.39
2023-03-05T04:21:30.401Z,6.41
2023-03-05T04:28:32.018Z,6.38
2023-03-05T04:35:33.636Z,6.24
2023-03-05T04:42:35.297Z,6.19
2023-03-05T04:49:36.850Z,6.10
2023-03-05T04:56:38.901Z,6.01
2023-03-05T05:03:40.481Z,6.10
2023-03-05T05:10:42.056Z,6.00
2023-03-05T05:17:43.642Z,6.00
2023-03-05T05:24:45.169Z,5.98
2023-03-05T05:31:46.780Z,5.96
2023-03-05T05:38:48.529Z,5.96
2023-03-05T05:45:50.212Z,5.82
2023-03-05T05:52:52.015Z,6.00
2023-03-05T05:59:53.555Z,5.73
2023-03-05T06:06:55.124Z,5.83
2023-03-05T06:13:56.832Z,5.83
2023-03-05T06:21:00.231Z,5.89
2023-03-05T06:28:01.767Z,5.75
2023-03-05T06:35:03.418Z,5.99
2023-03-05T06:42:05.149Z,6.06
2023-03-05T06:49:08.610Z,6.22
2023-03-05T06:56:10.490Z,6.37
2023-03-05T07:03:12.129Z,6.26
2023-03-05T07:10:13.713Z,6.38
2023-03-05T07:17:15.678Z,6.53
2023-03-05T07:24:17.216Z,6.53
2023-03-05T07:31:20.774Z,6.58
2023-03-05T07:38:22.373Z,6.58
2023-03-05T07:45:23.936Z,6.59
2023-03-05T07:52:25.611Z,6.91
2023-03-05T07:59:27.251Z,6.67
2023-03-05T08:06:28.905Z,7.04
2023-03-05T08:13:30.738Z,6.97
2023-03-05T08:20:35.153Z,6.94
2023-03-05T08:27:40.642Z,7.24
2023-03-05T08:34:42.202Z,7.64
2023-03-05T08:41:43.824Z,7.98
2023-03-05T08:48:45.360Z,7.58
2023-03-05T08:55:56.680Z,7.34
2023-03-05T09:02:58.302Z,7.93
2023-03-05T09:09:59.835Z,8.12
2023-03-05T09:17:01.860Z,8.47
2023-03-05T09:24:03.543Z,8.64
2023-03-05T09:31:05.246Z,8.48
2023-03-05T09:38:06.893Z,8.37
2023-03-05T09:45:08.416Z,8.00
2023-03-05T09:52:37.749Z,7.79
2023-03-05T09:59:49.737Z,7.97
2023-03-05T10:07:17.442Z,7.93
2023-03-05T10:14:33.045Z,8.18
2023-03-05T10:22:01.976Z,8.02
2023-03-05T10:29:36.350Z,8.32
2023-03-05T10:36:58.254Z,8.05
2023-03-05T10:44:32.955Z,8.23
2023-03-05T10:51:54.716Z,8.01
2023-03-05T10:58:56.295Z,7.93
2023-03-05T11:06:02.293Z,7.83
2023-03-05T11:13:24.164Z,8.11
2023-03-05T11:20:31.847Z,7.94
2023-03-05T11:27:54.992Z,8.28
2023-03-05T11:34:57.542Z,8.47
2023-03-05T11:42:05.742Z,8.56
2023-03-05T11:49:07.332Z,8.65
2023-03-05T11:56:22.186Z,8.78
2023-03-05T12:03:34.857Z,9.11
2023-03-05T12:10:37.148Z,8.91
2023-03-05T12:18:07.420Z,8.94
2023-03-05T12:25:28.664Z,8.85
2023-03-05T12:32:35.068Z,8.92
2023-03-05T12:39:47.585Z,8.72
2023-03-05T12:47:10.636Z,9.08
2023-03-05T12:54:30.441Z,9.17
2023-03-05T13:01:54.784Z,9.17
2023-03-05T13:09:16.871Z,9.29
2023-03-05T13:16:24.683Z,9.17
2023-03-05T13:23:27.016Z,9.15
2023-03-05T13:30:28.954Z,9.48
2023-03-05T13:37:31.713Z,10.03
2023-03-05T13:44:34.084Z,9.87
2023-03-05T13:51:51.618Z,9.71
2023-03-05T13:58:56.723Z,9.22
2023-03-05T14:06:09.780Z,9.14
2023-03-05T14:13:18.078Z,8.53
2023-03-05T14:20:24.114Z,8.57
2023-03-05T14:27:25.676Z,8.28
2023-03-05T14:34:35.654Z,8.01
2023-03-05T14:41:41.283Z,8.63
2023-03-05T14:48:42.868Z,8.77
2023-03-05T14:55:44.671Z,8.66
2023-03-05T15:02:46.253Z,8.64
2023-03-05T15:09:47.912Z,8.45
2023-03-05T15:16:49.555Z,8.69
2023-03-05T15:23:51.216Z,8.53
2023-03-05T15:30:52.802Z,8.38
2023-03-05T15:37:54.427Z,8.37
2023-03-05T15:44:56.062Z,8.14
2023-03-05T15:51:57.689Z,8.19
2023-03-05T15:58:59.318Z,7.91
2023-03-05T16:06:00.844Z,7.85
2023-03-05T16:13:06.107Z,7.81
2023-03-05T16:20:08.804Z,8.12
2023-03-05T16:27:10.796Z,7.95
2023-03-05T16:34:14.072Z,8.03
2023-03-05T16:41:16.365Z,7.74
2023-03-05T16:48:17.928Z,7.81
2023-03-05T16:55:19.464Z,7.70
2023-03-05T17:02:21.228Z,7.74
2023-03-05T17:09:24.487Z,7.65
2023-03-05T17:16:26.099Z,7.68
2023-03-05T17:23:27.720Z,7.59
2023-03-05T17:30:31.291Z,7.56
2023-03-05T17:37:32.947Z,7.61
2023-03-05T17:44:34.654Z,7.60
2023-03-05T17:51:37.726Z,7.55
2023-03-05T17:58:39.627Z,7.39
2023-03-05T18:05:41.257Z,7.47
2023-03-05T18:12:42.828Z,7.40
2023-03-05T18:19:44.385Z,7.42
2023-03-05T18:26:45.951Z,7.30
2023-03-05T18:33:47.532Z,7.33
2023-03-05T18:40:51.150Z,7.22
2023-03-05T18:47:54.263Z,7.21
2023-03-05T18:54:55.935Z,7.13
2023-03-05T19:01:57.616Z,7.22
2023-03-05T19:09:00.845Z,7.11
2023-03-05T19:16:12.596Z,7.11
2023-03-05T19:23:14.206Z,6.99
2023-03-05T19:30:16.274Z,6.99
2023-03-05T19:37:18.203Z,7.03
2023-03-05T19:44:19.792Z,6.97
2023-03-05T19:51:22.645Z,7.02
2023-03-05T19:58:24.314Z,7.01
2023-03-05T20:05:26.540Z,7.10
2023-03-05T20:12:28.160Z,7.05
2023-03-05T20:19:29.736Z,6.99
2023-03-05T20:26:34.336Z,7.16
2023-03-05T20:33:36.007Z,7.05
2023-03-05T20:40:37.608Z,6.95
2023-03-05T20:47:45.830Z,6.95
2023-03-05T20:54:47.811Z,6.95
2023-03-05T21:01:49.452Z,7.04
2023-03-05T21:08:51.151Z,6.99
2023-03-05T21:15:52.749Z,7.05
2023-03-05T21:22:57.837Z,6.93
2023-03-05T21:29:59.500Z,6.90
2023-03-05T21:37:01.618Z,6.95
2023-03-05T21:44:04.105Z,6.87
2023-03-05T21:51:09.120Z,6.68
2023-03-05T21:58:10.957Z,6.64
2023-03-05T22:05:13.070Z,6.66
2023-03-05T22:12:20.202Z,6.65
2023-03-05T22:19:21.968Z,6.65
2023-03-05T22:26:33.946Z,6.58
2023-03-05T22:33:35.723Z,6.68
2023-03-05T22:40:40.750Z,6.54
2023-03-05T22:47:42.499Z,6.63
2023-03-05T22:54:44.065Z,6.55
2023-03-05T23:01:45.759Z,6.53
2023-03-05T23:08:47.374Z,6.44
2023-03-05T23:15:49.003Z,6.33
2023-03-05T23:22:52.862Z,6.38
2023-03-05T23:30:31.479Z,6.33
2023-03-05T23:37:33.211Z,6.27
2023-03-05T23:44:34.785Z,6.25
2023-03-05T23:51:36.601Z,6.09
2023-03-05T23:58:38.283Z,6.06
